createdAt,value
2023-03-05T00:00:19.653Z,100.00
2023-03-05T00:03:23.553Z,100.00
2023-03-05T00:06:28.886Z,100.00
2023-03-05T00:09:32.231Z,99.94
2023-03-05T00:12:37.732Z,99.62
2023-03-05T00:15:42.306Z,98.57
2023-03-05T00:18:45.281Z,98.41
2023-03-05T00:21:48.520Z,100.00
2023-03-05T00:24:51.877Z,100.00
2023-03-05T00:27:55.806Z,99.00
2023-03-05T00:31:03.367Z,98.88
2023-03-05T00:34:09.676Z,98.73
2023-03-05T00:37:12.400Z,97.49
2023-03-05T00:40:38.079Z,98.28
2023-03-05T00:43:41.787Z,99.55
2023-03-05T00:46:45.432Z,99.10
2023-03-05T00:49:49.056Z,98.44
2023-03-05T00:52:53.140Z,99.74
2023-03-05T00:55:59.178Z,98.61
2023-03-05T00:59:02.812Z,99.02
2023-03-05T01:02:05.691Z,99.64
2023-03-05T01:05:28.969Z,99.96
2023-03-05T01:08:32.049Z,99.31
2023-03-05T01:11:35.284Z,100.00
2023-03-05T01:14:39.064Z,100.00
2023-03-05T01:17:42.344Z,99.46
2023-03-05T01:21:05.545Z,99.54
2023-03-05T01:24:09.255Z,100.00
2023-03-05T01:27:12.310Z,100.00
2023-03-05T01:30:17.435Z,100.00
2023-03-05T01:33:20.589Z,99.96
2023-03-05T01:36:25.259Z,99.45
2023-03-05T01:39:28.461Z,100.00
2023-03-05T01:42:31.743Z,99.36
2023-03-05T01:45:34.960Z,99.23
2023-03-05T01:48:39.166Z,99.42
2023-03-05T01:51:56.504Z,98.77
2023-03-05T01:55:04.327Z,98.33
2023-03-05T01:58:27.085Z,99.72
2023-03-05T02:01:39.856Z,98.48
2023-03-05T02:04:49.243Z,98.90
2023-03-05T02:07:51.908Z,100.00
2023-03-05T02:10:57.339Z,98.82
2023-03-05T02:14:02.926Z,99.51
2023-03-05T02:17:06.492Z,98.98
2023-03-05T02:20:31.022Z,99.87
2023-03-05T02:23:36.866Z,99.25
2023-03-05T02:26:40.025Z,99.24
2023-03-05T02:29:45.888Z,99.13
2023-03-05T02:32:48.829Z,99.23
2023-03-05T02:35:52.276Z,99.72
2023-03-05T02:38:57.145Z,99.06
2023-03-05T02:42:00.882Z,98.48
2023-03-05T02:45:05.097Z,97.57
2023-03-05T02:48:08.865Z,99.89
2023-03-05T02:51:12.066Z,99.86
2023-03-05T02:54:15.318Z,100.00
2023-03-05T02:57:19.429Z,98.52
2023-03-05T03:00:23.506Z,100.00
2023-03-05T03:03:26.626Z,98.81
2023-03-05T03:06:29.747Z,99.96
2023-03-05T03:09:36.017Z,99.51
2023-03-05T03:12:44.600Z,100.00
2023-03-05T03:15:47.356Z,100.00
2023-03-05T03:18:50.440Z,99.40
2023-03-05T03:21:55.077Z,99.62
2023-03-05T03:24:58.612Z,100.00
2023-03-05T03:28:01.423Z,100.00
2023-03-05T03:31:13.137Z,100.00
2023-03-05T03:34:17.902Z,99.83
2023-03-05T03:37:21.116Z,98.87
2023-03-05T03:40:24.623Z,99.57
2023-03-05T03:43:28.073Z,98.58
2023-03-05T03:46:30.971Z,99.02
2023-03-05T03:49:34.937Z,98.18
2023-03-05T03:52:37.866Z,98.86
2023-03-05T03:55:42.970Z,99.49
2023-03-05T03:58:52.140Z,98.31
2023-03-05T04:01:55.387Z,97.91
2023-03-05T04:04:58.910Z,99.21
2023-03-05T04:08:01.953Z,97.72
2023-03-05T04:11:05.441Z,98.53
2023-03-05T04:14:08.296Z,97.46
2023-03-05T04:17:12.279Z,97.59
2023-03-05T04:20:15.810Z,96.54
2023-03-05T04:23:19.073Z,95.49
2023-03-05T04:26:21.989Z,97.78
2023-03-05T04:29:25.095Z,98.62
2023-03-05T04:32:30.017Z,97.13
2023-03-05T04:35:33.129Z,98.07
2023-03-05T04:38:36.210Z,96.16
2023-03-05T04:41:39.760Z,97.36
2023-03-05T04:44:44.256Z,96.43
2023-03-05T04:47:47.484Z,96.76
2023-03-05T04:50:50.885Z,96.97
2023-03-05T04:53:54.201Z,97.94
2023-03-05T04:56:58.569Z,96.34
2023-03-05T05:00:01.989Z,96.12
2023-03-05T05:03:06.324Z,96.88
2023-03-05T05:06:09.758Z,96.26
2023-03-05T05:09:12.770Z,97.15
2023-03-05T05:12:15.828Z,96.15
2023-03-05T05:15:18.774Z,98.27
2023-03-05T05:18:22.843Z,96.83
2023-03-05T05:21:26.461Z,98.21
2023-03-05T05:24:29.918Z,97.93
2023-03-05T05:27:33.760Z,97.97
2023-03-05T05:30:37.429Z,98.00
2023-03-05T05:33:41.424Z,98.75
2023-03-05T05:36:45.564Z,99.24
2023-03-05T05:39:50.460Z,100.00
2023-03-05T05:42:54.107Z,99.79
2023-03-05T05:46:09.760Z,100.00
2023-03-05T05:49:14.410Z,98.94
2023-03-05T05:52:22.843Z,98.63
2023-03-05T05:55:26.212Z,98.83
2023-03-05T05:58:32.621Z,99.77
2023-03-05T06:01:36.300Z,100.00
2023-03-05T06:04:43.251Z,99.74
2023-03-05T06:07:46.756Z,99.12
2023-03-05T06:10:56.192Z,99.07
2023-03-05T06:13:59.017Z,100.00
2023-03-05T06:17:03.200Z,99.45
2023-03-05T06:20:07.316Z,99.34
2023-03-05T06:23:10.812Z,100.00
2023-03-05T06:26:16.427Z,98.34
2023-03-05T06:29:19.691Z,98.97
2023-03-05T06:32:23.365Z,99.37
2023-03-05T06:35:26.985Z,95.59
2023-03-05T06:38:29.840Z,94.33
2023-03-05T06:41:33.730Z,95.36
2023-03-05T06:44:40.808Z,92.84
2023-03-05T06:48:04.302Z,91.49
2023-03-05T06:51:14.725Z,94.02
2023-03-05T06:54:18.329Z,93.46
2023-03-05T06:57:45.752Z,91.34
2023-03-05T07:00:58.795Z,91.66
2023-03-05T07:04:04.498Z,92.21
2023-03-05T07:07:07.575Z,91.68
2023-03-05T07:10:19.145Z,91.80
2023-03-05T07:13:22.592Z,91.13
2023-03-05T07:16:34.870Z,92.11
2023-03-05T07:19:46.600Z,91.41
2023-03-05T07:22:53.234Z,92.30
2023-03-05T07:25:56.381Z,94.75
2023-03-05T07:29:39.028Z,92.41
2023-03-05T07:32:42.348Z,91.83
2023-03-05T07:35:45.139Z,93.30
2023-03-05T07:39:08.402Z,91.27
2023-03-05T07:42:31.681Z,93.51
2023-03-05T07:45:44.254Z,92.44
2023-03-05T07:48:47.464Z,91.52
2023-03-05T07:51:51.190Z,91.77
2023-03-05T07:54:53.919Z,92.07
2023-03-05T07:57:58.657Z,91.38
2023-03-05T08:01:01.790Z,91.06
2023-03-05T08:05:05.094Z,92.35
2023-03-05T08:08:12.430Z,91.78
2023-03-05T08:11:37.334Z,91.67
2023-03-05T08:14:45.718Z,89.53
2023-03-05T08:18:08.982Z,90.60
2023-03-05T08:21:55.008Z,88.03
2023-03-05T08:25:07.068Z,89.76
2023-03-05T08:28:29.955Z,90.83
2023-03-05T08:31:53.811Z,90.68
2023-03-05T08:35:16.548Z,88.81
2023-03-05T08:38:40.777Z,90.32
2023-03-05T08:42:08.587Z,88.47
2023-03-05T08:45:22.049Z,88.61
2023-03-05T08:48:44.913Z,88.10
2023-03-05T08:51:56.652Z,86.86
2023-03-05T08:55:00.637Z,87.01
2023-03-05T08:58:04.529Z,87.56
2023-03-05T09:01:10.375Z,85.84
2023-03-05T09:04:53.669Z,85.23
2023-03-05T09:07:56.560Z,88.75
2023-03-05T09:11:42.146Z,85.28
2023-03-05T09:15:12.962Z,87.26
2023-03-05T09:18:36.949Z,86.75
2023-03-05T09:21:49.405Z,83.65
2023-03-05T09:24:52.840Z,84.80
2023-03-05T09:27:55.630Z,83.91
2023-03-05T09:31:03.993Z,82.94
2023-03-05T09:34:08.371Z,82.88
2023-03-05T09:37:12.006Z,85.17
2023-03-05T09:40:19.549Z,87.42
2023-03-05T09:43:48.059Z,80.04
2023-03-05T09:47:22.087Z,81.52
2023-03-05T09:50:39.126Z,78.79
2023-03-05T09:53:47.862Z,77.73
2023-03-05T09:57:24.196Z,79.79
2023-03-05T10:00:51.203Z,77.01
2023-03-05T10:04:01.079Z,76.67
2023-03-05T10:07:16.683Z,74.87
2023-03-05T10:10:47.627Z,76.59
2023-03-05T10:14:22.623Z,72.68
2023-03-05T10:17:34.954Z,71.46
2023-03-05T10:21:06.609Z,72.68
2023-03-05T10:24:22.440Z,70.32
2023-03-05T10:28:01.895Z,69.59
2023-03-05T10:31:13.061Z,67.89
2023-03-05T10:34:34.520Z,70.06
2023-03-05T10:38:11.627Z,64.48
2023-03-05T10:41:49.615Z,68.35
2023-03-05T10:45:01.229Z,63.74
2023-03-05T10:48:29.061Z,64.80
2023-03-05T10:51:48.475Z,67.46
2023-03-05T10:54:51.412Z,63.73
2023-03-05T10:57:55.024Z,64.93
2023-03-05T11:01:13.096Z,65.23
2023-03-05T11:04:29.001Z,66.43
2023-03-05T11:07:35.282Z,66.41
2023-03-05T11:10:38.575Z,67.78
2023-03-05T11:13:55.757Z,61.71
2023-03-05T11:17:03.983Z,61.74
2023-03-05T11:20:26.572Z,59.43
2023-03-05T11:23:31.929Z,62.08
2023-03-05T11:26:34.765Z,62.46
2023-03-05T11:29:48.396Z,61.65
2023-03-05T11:33:10.265Z,63.25
2023-03-05T11:36:23.833Z,63.49
2023-03-05T11:39:30.438Z,64.17
2023-03-05T11:43:16.715Z,62.67
2023-03-05T11:46:21.928Z,63.55
2023-03-05T11:49:28.552Z,64.47
2023-03-05T11:52:39.114Z,65.57
2023-03-05T11:55:45.411Z,64.39
2023-03-05T11:59:00.279Z,64.75
2023-03-05T12:02:03.970Z,65.10
2023-03-05T12:05:07.867Z,65.18
2023-03-05T12:08:15.621Z,63.31
2023-03-05T12:11:27.632Z,63.26
2023-03-05T12:14:42.252Z,62.69
2023-03-05T12:18:09.005Z,59.48
2023-03-05T12:21:23.816Z,59.37
2023-03-05T12:24:28.339Z,64.44
2023-03-05T12:27:39.423Z,65.23
2023-03-05T12:30:43.669Z,63.04
2023-03-05T12:33:46.719Z,60.62
2023-03-05T12:36:49.718Z,63.26
2023-03-05T12:40:12.723Z,63.15
2023-03-05T12:43:33.902Z,61.21
2023-03-05T12:46:58.167Z,63.44
2023-03-05T12:50:02.130Z,63.87
2023-03-05T12:53:11.239Z,64.77
2023-03-05T12:56:22.315Z,65.50
2023-03-05T12:59:39.057Z,62.95
2023-03-05T13:02:45.960Z,60.95
2023-03-05T13:05:58.271Z,63.80
2023-03-05T13:09:08.011Z,61.35
2023-03-05T13:12:14.052Z,62.57
2023-03-05T13:15:17.383Z,60.76
2023-03-05T13:18:28.838Z,62.04
2023-03-05T13:21:33.251Z,62.53
2023-03-05T13:24:36.152Z,61.52
2023-03-05T13:27:39.335Z,62.71
2023-03-05T13:31:12.254Z,60.72
2023-03-05T13:34:47.310Z,62.13
2023-03-05T13:37:50.880Z,60.01
2023-03-05T13:41:27.247Z,61.29
2023-03-05T13:44:31.217Z,63.62
2023-03-05T13:47:56.067Z,65.88
2023-03-05T13:50:59.524Z,64.61
2023-03-05T13:54:04.353Z,64.19
2023-03-05T13:57:08.628Z,64.26
2023-03-05T14:00:35.098Z,66.94
2023-03-05T14:03:40.561Z,66.33
2023-03-05T14:06:49.312Z,65.65
2023-03-05T14:09:56.689Z,65.11
2023-03-05T14:13:23.713Z,64.53
